Time;durP1;ratioP1;P1;durP2;ratioP2;P2;SDS_P1;SDS_P2;PMS_P1;PMS_P2;Temp;Humidity;BMP_temperature;BMP_pressure;BME280_temperature;BME280_humidity;BME280_pressure;Samples;Min_cycle;Max_cycle;Signal;HPM_P1;HPM_P2
2023/11/25 00:01:59;;;;;;;12.30;6.40;;;;;;;2.01;86.91;98000.61;107399;280;105645;-54
2023/11/25 00:04:41;;;;;;;8.40;4.70;;;;;;;2.01;86.98;97997.02;107263;280;155858;-57
2023/11/25 00:07:16;;;;;;;10.90;4.80;;;;;;;1.97;87.00;97996.20;107393;279;95918;-57
2023/11/25 00:09:55;;;;;;;9.00;5.20;;;;;;;1.97;87.08;97995.27;107484;279;96083;-53
2023/11/25 00:12:32;;;;;;;13.90;4.90;;;;;;;2.00;87.06;97992.10;107232;279;155703;-52
2023/11/25 00:15:10;;;;;;;8.90;4.60;;;;;;;2.03;86.84;97994.45;107436;279;104144;-54
2023/11/25 00:17:44;;;;;;;6.40;4.90;;;;;;;1.99;86.77;98002.70;107226;279;154392;-53
2023/11/25 00:20:21;;;;;;;10.80;4.90;;;;;;;1.98;86.83;97999.58;107361;280;94571;-54
2023/11/25 00:23:00;;;;;;;8.90;5.00;;;;;;;1.99;86.84;98001.27;107303;280;154578;-54
2023/11/25 00:25:38;;;;;;;9.90;4.70;;;;;;;2.00;86.90;98001.64;107402;280;119581;-57
2023/11/25 00:28:20;;;;;;;9.20;4.80;;;;;;;2.00;87.01;98006.77;107416;280;106108;-57
2023/11/25 00:31:02;;;;;;;7.70;4.60;;;;;;;2.02;87.13;98008.61;107221;280;114722;-56
2023/11/25 00:33:40;;;;;;;10.10;4.50;;;;;;;2.04;87.04;98007.81;107362;280;96057;-55
2023/11/25 00:36:16;;;;;;;9.70;4.40;;;;;;;2.06;87.14;98008.15;107166;281;155443;-55
2023/11/25 00:38:52;;;;;;;10.20;4.80;;;;;;;2.10;87.17;98011.67;107402;280;120441;-54
2023/11/25 00:41:35;;;;;;;11.10;5.00;;;;;;;2.13;87.01;98015.08;107279;280;154859;-54
2023/11/25 00:44:12;;;;;;;9.30;4.40;;;;;;;2.11;86.98;98012.66;107365;280;114959;-57
2023/11/25 00:46:54;;;;;;;8.10;4.80;;;;;;;2.06;87.06;98013.32;107256;280;153760;-57
2023/11/25 00:49:38;;;;;;;9.20;4.80;;;;;;;2.03;87.09;98008.02;107420;279;99044;-57
2023/11/25 00:52:17;;;;;;;12.70;5.40;;;;;;;2.02;86.98;98009.42;107481;279;119664;-57
2023/11/25 00:54:54;;;;;;;11.70;5.70;;;;;;;2.00;86.86;98015.08;107279;279;155716;-55
2023/11/25 00:57:32;;;;;;;13.80;6.20;;;;;;;1.96;86.82;98015.78;107456;279;114497;-54
2023/11/25 01:00:15;;;;;;;8.90;5.10;;;;;;;1.92;87.02;98012.55;107209;279;154752;-55
2023/11/25 01:02:56;;;;;;;11.60;5.30;;;;;;;1.96;86.91;98012.62;107402;280;97011;-56
2023/11/25 01:05:36;;;;;;;12.20;5.50;;;;;;;1.98;86.98;98010.99;107269;280;153764;-57
2023/11/25 01:08:10;;;;;;;17.10;7.60;;;;;;;1.94;87.05;98009.45;107382;280;104530;-57
2023/11/25 01:10:56;;;;;;;15.90;7.70;;;;;;;1.95;86.97;98010.02;107247;280;155558;-54
2023/11/25 01:13:41;;;;;;;8.40;4.80;;;;;;;1.95;86.89;98010.27;107334;279;95344;-54
2023/11/25 01:16:34;;;;;;;8.20;4.60;;;;;;;1.95;86.81;98016.14;107376;279;97458;-52
2023/11/25 01:19:22;;;;;;;9.10;4.40;;;;;;;1.94;87.03;98017.81;107363;279;120893;-58
2023/11/25 01:22:04;;;;;;;8.40;5.10;;;;;;;1.95;87.01;98018.54;107394;279;104787;-56
2023/11/25 01:24:50;;;;;;;8.90;5.00;;;;;;;1.97;86.98;98021.32;107218;279;154645;-52
2023/11/25 01:27:35;;;;;;;6.80;4.50;;;;;;;2.00;86.93;98017.45;107404;279;95600;-52
2023/11/25 01:30:15;;;;;;;8.50;4.60;;;;;;;1.99;86.91;98017.60;107220;279;155729;-52
2023/11/25 01:32:52;;;;;;;8.10;4.60;;;;;;;1.96;87.06;98016.52;107378;280;121305;-53
2023/11/25 01:35:28;;;;;;;8.40;4.60;;;;;;;1.95;87.14;98014.54;107277;280;154731;-53
2023/11/25 01:38:03;;;;;;;8.40;4.30;;;;;;;1.96;87.01;98017.21;107396;280;114426;-54
2023/11/25 01:40:40;;;;;;;9.60;5.90;;;;;;;1.96;86.96;98018.45;107282;280;155465;-52
2023/11/25 01:43:23;;;;;;;8.70;4.80;;;;;;;1.98;86.97;98024.93;107446;279;97785;-52
2023/11/25 01:46:06;;;;;;;7.90;5.00;;;;;;;1.97;86.92;98028.80;107445;279;121096;-52
2023/11/25 01:48:49;;;;;;;9.90;4.40;;;;;;;1.98;86.95;98027.30;107273;279;154186;-57
2023/11/25 01:51:31;;;;;;;8.80;4.30;;;;;;;1.99;86.95;98029.52;107380;280;114273;-56
2023/11/25 01:54:15;;;;;;;7.50;4.50;;;;;;;1.94;87.03;98026.48;107235;280;155992;-53
2023/11/25 01:56:58;;;;;;;7.30;5.20;;;;;;;1.93;87.18;98027.54;107392;280;97636;-53
2023/11/25 01:59:40;;;;;;;6.10;4.70;;;;;;;1.86;87.16;98028.39;107236;280;154353;-57
2023/11/25 02:02:20;;;;;;;10.00;5.40;;;;;;;1.84;87.29;98036.27;107389;280;105807;-57
2023/11/25 02:05:01;;;;;;;8.60;5.50;;;;;;;1.88;87.28;98040.85;107254;280;155108;-54
2023/11/25 02:07:39;;;;;;;6.80;5.30;;;;;;;1.89;87.23;98036.40;107451;279;93553;-53
2023/11/25 02:10:16;;;;;;;8.70;6.20;;;;;;;1.88;87.31;98041.02;107441;279;96601;-58
2023/11/25 02:12:54;;;;;;;8.60;5.90;;;;;;;1.88;87.21;98032.79;107242;279;154752;-58
2023/11/25 02:15:32;;;;;;;7.10;5.70;;;;;;;1.84;87.19;98039.88;107388;279;105004;-57
2023/11/25 02:18:08;;;;;;;8.90;5.80;;;;;;;1.79;87.26;98045.41;107254;279;155551;-58
2023/11/25 02:20:45;;;;;;;6.80;5.10;;;;;;;1.74;87.42;98051.50;107333;280;95913;-53
2023/11/25 02:23:23;;;;;;;8.90;5.80;;;;;;;1.73;87.42;98057.88;107204;280;155484;-53
2023/11/25 02:25:57;;;;;;;9.80;5.90;;;;;;;1.72;87.48;98059.23;107378;280;120771;-54
2023/11/25 02:28:35;;;;;;;10.50;5.40;;;;;;;1.70;87.61;98058.02;107398;280;105606;-57
2023/11/25 02:31:22;;;;;;;9.20;5.40;;;;;;;1.68;87.80;98058.20;107272;280;114982;-57
2023/11/25 02:34:02;;;;;;;9.60;5.30;;;;;;;1.72;87.91;98055.79;107348;280;93255;-52
2023/11/25 02:36:38;;;;;;;6.70;5.40;;;;;;;1.75;87.87;98055.90;107251;280;153166;-51
2023/11/25 02:39:17;;;;;;;6.60;5.10;;;;;;;1.71;87.88;98061.14;107366;280;120732;-53
2023/11/25 02:41:54;;;;;;;9.00;5.70;;;;;;;1.69;87.93;98062.31;107258;280;154286;-54
2023/11/25 02:44:30;;;;;;;9.60;5.20;;;;;;;1.67;87.96;98063.44;107377;280;114548;-52
2023/11/25 02:47:08;;;;;;;9.00;5.80;;;;;;;1.72;87.75;98061.08;107278;280;154500;-52
2023/11/25 02:49:45;;;;;;;9.10;5.20;;;;;;;1.71;87.75;98070.19;107479;279;98391;-54
2023/11/25 02:52:28;;;;;;;8.90;5.10;;;;;;;1.71;87.79;98077.60;107438;279;120223;-54
2023/11/25 02:55:04;;;;;;;7.20;5.00;;;;;;;1.69;87.93;98081.80;107241;279;153966;-57
2023/11/25 02:57:46;;;;;;;6.20;4.70;;;;;;;1.68;87.90;98082.52;107440;279;114820;-57
2023/11/25 03:00:29;;;;;;;7.70;4.50;;;;;;;1.70;87.77;98085.37;107236;279;154094;-57
2023/11/25 03:03:12;;;;;;;6.60;4.60;;;;;;;1.68;87.80;98085.10;107390;280;97977;-57
2023/11/25 03:05:53;;;;;;;6.30;4.30;;;;;;;1.65;87.77;98088.34;107240;280;155477;-55
2023/11/25 03:08:29;;;;;;;8.60;4.90;;;;;;;1.62;87.82;98089.46;107394;280;105702;-54
2023/11/25 03:11:11;;;;;;;6.30;4.20;;;;;;;1.61;87.69;98088.34;107258;280;154512;-54
2023/11/25 03:13:52;;;;;;;6.60;4.30;;;;;;;1.55;87.76;98091.59;107503;279;95842;-58
2023/11/25 03:16:35;;;;;;;6.60;4.00;;;;;;;1.57;87.68;98088.71;107413;279;98459;-58
2023/11/25 03:19:14;;;;;;;6.00;4.30;;;;;;;1.61;87.63;98091.91;107349;279;121928;-51
2023/11/25 03:21:48;;;;;;;6.70;4.40;;;;;;;1.61;87.62;98094.92;107348;279;105380;-52
2023/11/25 03:24:24;;;;;;;;;;;;;;;1.63;87.53;98094.13;107235;279;154406;-53
2023/11/25 03:27:03;;;;;;;6.70;4.10;;;;;;;1.63;87.58;98094.30;107418;279;93710;-52
2023/11/25 03:29:41;;;;;;;5.40;4.30;;;;;;;1.60;87.59;98098.98;107266;279;154001;-54
2023/11/25 03:32:25;;;;;;;5.80;4.10;;;;;;;1.55;87.70;98100.11;107405;280;119824;-54
2023/11/25 03:35:04;;;;;;;5.40;4.10;;;;;;;1.63;87.49;98102.82;107352;281;154270;-57
2023/11/25 03:37:41;;;;;;;6.20;4.10;;;;;;;1.64;87.36;98107.69;107365;281;115907;-58
2023/11/25 03:40:16;;;;;;;6.50;4.20;;;;;;;1.55;87.54;98106.10;107367;281;93770;-53
2023/11/25 03:42:54;;;;;;;5.30;4.00;;;;;;;1.52;87.63;98109.73;107254;281;155338;-54
2023/11/25 03:45:39;;;;;;;6.00;3.90;;;;;;;1.45;87.84;98109.03;107363;281;121338;-56
2023/11/25 03:48:24;;;;;;;7.10;4.10;;;;;;;1.42;87.98;98111.93;107198;281;155607;-57
2023/11/25 03:51:06;;;;;;;6.10;4.10;;;;;;;1.47;87.85;98113.50;107391;281;113673;-55
2023/11/25 03:53:45;;;;;;;5.30;3.70;;;;;;;1.51;87.79;98114.05;107139;281;155680;-51
2023/11/25 03:56:22;;;;;;;6.30;3.90;;;;;;;1.51;87.86;98117.73;107404;282;96549;-52
2023/11/25 03:58:59;;;;;;;4.80;4.10;;;;;;;1.53;87.86;98119.09;107341;282;154406;-57
2023/11/25 04:01:45;;;;;;;5.80;3.90;;;;;;;1.51;87.97;98124.17;107291;282;104477;-57
2023/11/25 04:04:29;;;;;;;5.60;3.80;;;;;;;1.51;88.09;98131.05;107388;282;115834;-52
2023/11/25 04:07:06;;;;;;;4.70;3.80;;;;;;;1.49;88.02;98129.77;107131;282;153523;-52
2023/11/25 04:09:49;;;;;;;5.60;4.60;;;;;;;1.49;88.09;98128.16;107477;282;97636;-53
2023/11/25 04:12:29;;;;;;;4.50;3.50;;;;;;;1.49;88.01;98130.76;107141;282;155066;-52
2023/11/25 04:15:08;;;;;;;6.40;3.90;;;;;;;1.49;88.02;98130.91;107299;282;105467;-53
2023/11/25 04:17:48;;;;;;;4.30;3.60;;;;;;;1.51;88.02;98127.23;107103;282;154993;-53
2023/11/25 04:20:28;;;;;;;5.30;3.70;;;;;;;1.48;88.04;98130.00;107369;282;96401;-57
2023/11/25 04:23:10;;;;;;;3.80;3.30;;;;;;;1.51;88.04;98129.95;107282;282;155111;-57
2023/11/25 04:25:53;;;;;;;5.70;3.70;;;;;;;1.54;87.96;98130.91;107354;282;119663;-53
2023/11/25 04:28:30;;;;;;;5.00;3.40;;;;;;;1.54;87.93;98137.56;107509;282;105325;-55
2023/11/25 04:31:09;;;;;;;5.70;3.90;;;;;;;1.57;87.96;98144.02;107270;283;113686;-53
2023/11/25 04:33:50;;;;;;;4.70;3.80;;;;;;;1.56;87.93;98147.49;107338;281;95464;-53
2023/11/25 04:36:35;;;;;;;4.90;3.70;;;;;;;1.57;87.95;98154.58;107266;281;154231;-53
2023/11/25 04:39:17;;;;;;;3.80;3.20;;;;;;;1.59;87.95;98155.34;107366;281;121289;-53
2023/11/25 04:42:04;;;;;;;4.40;3.20;;;;;;;1.59;87.85;98160.53;107228;281;155623;-53
2023/11/25 04:44:45;;;;;;;4.80;3.20;;;;;;;1.56;88.04;98161.53;107369;280;114887;-58
2023/11/25 04:47:24;;;;;;;3.30;2.80;;;;;;;1.55;88.07;98161.38;107229;280;155817;-57
2023/11/25 04:50:04;;;;;;;4.50;3.10;;;;;;;1.55;88.11;98165.52;107414;280;98080;-53
2023/11/25 04:52:44;;;;;;;3.50;3.00;;;;;;;1.57;87.94;98172.01;107439;280;121390;-53
2023/11/25 04:55:27;;;;;;;3.40;3.10;;;;;;;1.55;88.14;98177.59;107286;280;105608;-55
2023/11/25 04:58:11;;;;;;;3.60;2.90;;;;;;;1.52;88.28;98178.66;107380;280;114956;-57
2023/11/25 05:00:57;;;;;;;4.10;3.00;;;;;;;1.50;88.30;98179.23;107116;280;153771;-53
2023/11/25 05:03:40;;;;;;;4.10;2.60;;;;;;;1.50;88.34;98179.42;107354;281;97506;-57
2023/11/25 05:06:15;;;;;;;3.30;2.90;;;;;;;1.49;88.24;98184.56;107139;281;154449;-55
2023/11/25 05:08:55;;;;;;;3.80;2.70;;;;;;;1.49;88.18;98190.05;107367;281;105142;-53
2023/11/25 05:11:37;;;;;;;3.00;2.70;;;;;;;1.47;88.31;98192.57;107221;281;154569;-52
2023/11/25 05:14:15;;;;;;;2.90;2.60;;;;;;;1.50;88.30;98195.45;107383;280;95388;-55
2023/11/25 05:16:49;;;;;;;3.10;2.70;;;;;;;1.51;88.24;98197.77;107318;280;157128;-55
2023/11/25 05:19:30;;;;;;;2.80;2.20;;;;;;;1.51;88.26;98202.92;107399;280;120523;-52
2023/11/25 05:22:16;;;;;;;2.60;2.30;;;;;;;1.49;88.26;98202.45;107370;280;105961;-52
2023/11/25 05:25:00;;;;;;;3.70;2.70;;;;;;;1.50;88.35;98208.96;107237;280;154619;-56
2023/11/25 05:27:41;;;;;;;2.80;2.60;;;;;;;1.48;88.46;98213.56;107391;281;94064;-56
2023/11/25 05:30:17;;;;;;;3.60;2.40;;;;;;;1.44;88.50;98214.98;107246;281;154591;-54
2023/11/25 05:32:57;;;;;;;3.40;3.10;;;;;;;1.41;88.60;98217.98;107378;281;120820;-54
2023/11/25 05:35:37;;;;;;;3.50;2.80;;;;;;;1.38;88.62;98218.67;107226;281;154161;-51
2023/11/25 05:38:18;;;;;;;3.50;2.60;;;;;;;1.42;88.71;98228.38;107371;281;114321;-52
2023/11/25 05:40:58;;;;;;;3.90;3.10;;;;;;;1.39;88.79;98229.08;107234;281;155356;-53
2023/11/25 05:43:40;;;;;;;4.00;2.80;;;;;;;1.40;88.81;98230.89;107359;281;96659;-55
2023/11/25 05:46:23;;;;;;;4.20;2.80;;;;;;;1.39;88.80;98236.92;107404;281;120609;-55
2023/11/25 05:48:59;;;;;;;2.70;2.40;;;;;;;1.37;88.84;98239.73;107284;281;154488;-54
2023/11/25 05:51:42;;;;;;;3.20;2.40;;;;;;;1.40;88.87;98244.55;107417;281;113795;-53
2023/11/25 05:54:22;;;;;;;2.40;2.20;;;;;;;1.40;88.86;98247.14;107240;281;155597;-58
2023/11/25 05:57:02;;;;;;;3.10;2.80;;;;;;;1.42;88.87;98256.14;107440;281;99346;-57
2023/11/25 05:59:43;;;;;;;4.70;4.20;;;;;;;1.43;88.97;98261.92;107209;281;153611;-52
2023/11/25 06:02:22;;;;;;;5.30;4.70;;;;;;;1.41;88.88;98271.75;107379;281;105935;-52
2023/11/25 06:04:57;;;;;;;5.40;4.80;;;;;;;1.35;89.06;98269.22;107211;281;154946;-51
2023/11/25 06:07:40;;;;;;;5.50;5.00;;;;;;;1.30;89.07;98273.80;107344;281;96362;-53
2023/11/25 06:10:17;;;;;;;5.90;4.90;;;;;;;1.25;89.13;98277.01;107418;281;97862;-53
2023/11/25 06:12:59;;;;;;;6.10;4.40;;;;;;;1.28;89.09;98283.95;107227;281;154262;-54
2023/11/25 06:15:36;;;;;;;4.40;3.40;;;;;;;1.26;89.18;98291.92;107251;281;108499;-52
2023/11/25 06:18:20;;;;;;;4.50;4.00;;;;;;;1.29;89.17;98294.25;107206;281;154378;-52
2023/11/25 06:21:02;;;;;;;5.60;3.90;;;;;;;1.23;89.20;98302.41;107345;281;95249;-58
2023/11/25 06:23:40;;;;;;;5.30;4.30;;;;;;;1.24;89.29;98306.27;107281;281;154211;-52
2023/11/25 06:26:27;;;;;;;5.10;4.60;;;;;;;1.27;89.31;98307.27;107349;281;120502;-53
2023/11/25 06:29:06;;;;;;;5.50;4.20;;;;;;;1.29;89.35;98314.55;107231;281;154727;-58
2023/11/25 06:31:46;;;;;;;5.10;4.40;;;;;;;1.34;89.23;98316.55;107388;281;114357;-58
2023/11/25 06:34:21;;;;;;;5.20;4.50;;;;;;;1.31;89.36;98323.33;107375;281;94019;-53
2023/11/25 06:37:02;;;;;;;5.10;4.30;;;;;;;1.31;89.40;98328.80;107162;281;154100;-52
2023/11/25 06:39:40;;;;;;;5.10;4.20;;;;;;;1.31;89.43;98341.07;106939;281;524085;-55
2023/11/25 06:42:20;;;;;;;4.60;4.10;;;;;;;1.32;89.43;98342.32;107173;281;155077;-56
2023/11/25 06:45:01;;;;;;;5.20;4.30;;;;;;;1.31;89.41;98346.65;107353;281;113378;-58
2023/11/25 06:47:41;;;;;;;4.50;3.90;;;;;;;1.29;89.36;98346.77;107255;281;154633;-59
2023/11/25 06:50:22;;;;;;;4.50;3.60;;;;;;;1.20;89.50;98351.13;107363;281;97335;-55
2023/11/25 06:53:05;;;;;;;5.50;3.80;;;;;;;1.19;89.52;98351.95;107237;281;155884;-55
2023/11/25 06:55:49;;;;;;;5.50;3.70;;;;;;;1.16;89.60;98354.06;107386;281;106322;-53
2023/11/25 06:58:37;;;;;;;3.80;3.40;;;;;;;1.13;89.60;98363.30;107257;281;113733;-55
2023/11/25 07:01:21;;;;;;;4.20;3.60;;;;;;;1.19;89.52;98366.39;107151;282;95732;-58
2023/11/25 07:03:57;;;;;;;4.40;3.30;;;;;;;1.21;89.43;98366.30;107339;281;97266;-53
2023/11/25 07:06:42;;;;;;;4.00;3.40;;;;;;;1.19;89.48;98369.40;107250;281;154112;-53
2023/11/25 07:09:20;;;;;;;4.10;3.20;;;;;;;1.18;89.47;98377.49;107406;281;106130;-54
2023/11/25 07:11:56;;;;;;;4.30;3.30;;;;;;;1.20;89.56;98374.95;107216;281;155255;-54
2023/11/25 07:14:31;;;;;;;4.50;3.50;;;;;;;1.28;89.35;98374.95;107380;280;92945;-54
2023/11/25 07:17:13;;;;;;;5.80;3.70;;;;;;;1.28;89.44;98377.01;107273;280;155074;-54
2023/11/25 07:19:47;;;;;;;6.30;3.60;;;;;;;1.30;89.45;98379.69;107397;281;120455;-52
2023/11/25 07:22:25;;;;;;;;;;;;;;;1.30;89.46;98381.08;107263;282;105677;-52
2023/11/25 07:25:05;;;;;;;4.30;3.20;;;;;;;1.26;89.50;98381.52;107256;280;140664;-53
2023/11/25 07:27:40;;;;;;;4.00;2.90;;;;;;;1.25;89.57;98389.66;107348;280;95421;-54
2023/11/25 07:30:17;;;;;;;4.30;3.00;;;;;;;1.26;89.59;98387.59;107296;280;154407;-57
2023/11/25 07:33:01;;;;;;;6.00;3.50;;;;;;;1.29;89.47;98391.63;107373;280;120743;-57
2023/11/25 07:35:38;;;;;;;7.30;3.70;;;;;;;1.35;89.33;98393.96;107230;280;155580;-53
2023/11/25 07:38:17;;;;;;;6.60;3.50;;;;;;;1.43;89.48;98399.67;107363;281;113418;-53
2023/11/25 07:40:53;;;;;;;5.50;3.10;;;;;;;1.50;89.38;98400.77;107228;281;155761;-56
2023/11/25 07:43:36;;;;;;;4.20;3.30;;;;;;;1.49;89.35;98405.73;107407;281;97778;-57
2023/11/25 07:46:21;;;;;;;5.30;3.30;;;;;;;1.54;89.38;98412.01;107392;281;120648;-58
2023/11/25 07:49:03;;;;;;;5.30;3.00;;;;;;;1.59;89.25;98416.91;107224;281;154550;-51
2023/11/25 07:51:39;;;;;;;4.30;2.70;;;;;;;1.57;89.25;98415.39;107351;281;114231;-52
2023/11/25 07:54:15;;;;;;;4.00;3.00;;;;;;;1.53;89.05;98420.91;107190;281;155072;-54
2023/11/25 07:56:50;;;;;;;5.80;3.10;;;;;;;1.52;89.12;98423.42;107369;281;97079;-55
2023/11/25 07:59:29;;;;;;;4.10;2.80;;;;;;;1.53;88.97;98419.77;107217;281;153431;-58
2023/11/25 08:02:14;;;;;;;3.80;2.70;;;;;;;1.57;88.98;98419.53;107378;281;105729;-58
2023/11/25 08:04:59;;;;;;;6.60;4.90;;;;;;;1.59;88.96;98426.36;107099;281;156067;-52
2023/11/25 08:07:35;;;;;;;;;;;;;;;1.62;88.92;98428.83;107362;281;96430;-52
2023/11/25 08:10:10;;;;;;;;;;;;;;;1.65;88.98;98439.77;107413;281;97940;-57
2023/11/25 08:12:46;;;;;;;5.00;2.90;;;;;;;1.64;88.95;98441.55;107183;281;140395;-58
2023/11/25 08:15:24;;;;;;;5.10;2.70;;;;;;;1.58;88.79;98449.55;107400;281;106649;-53
2023/11/25 08:18:05;;;;;;;4.10;2.70;;;;;;;1.63;88.85;98446.81;107190;281;154447;-53
2023/11/25 08:20:46;;;;;;;4.80;2.30;;;;;;;1.69;88.73;98441.27;107387;281;93955;-56
2023/11/25 08:23:27;;;;;;;7.20;3.30;;;;;;;1.76;88.57;98443.95;107251;281;155165;-54
2023/11/25 08:26:07;;;;;;;5.90;3.10;;;;;;;1.73;88.45;98444.82;107392;281;122010;-56
2023/11/25 08:28:43;;;;;;;8.50;2.90;;;;;;;1.69;88.39;98442.50;107401;281;105409;-56
2023/11/25 08:31:23;;;;;;;6.00;3.20;;;;;;;1.67;88.37;98441.69;107250;280;113159;-56
2023/11/25 08:33:56;;;;;;;5.10;2.30;;;;;;;1.66;88.28;98446.55;107392;280;95836;-53
2023/11/25 08:36:53;;;;;;;6.00;2.90;;;;;;;1.63;88.33;98449.56;107284;280;155248;-55
2023/11/25 08:39:35;;;;;;;4.60;2.40;;;;;;;1.69;88.21;98444.17;107384;280;120388;-57
2023/11/25 08:42:16;;;;;;;2.50;1.40;;;;;;;1.73;88.14;98445.71;107200;280;154218;-53
2023/11/25 08:44:55;;;;;;;3.10;1.90;;;;;;;1.77;88.16;98456.33;107396;281;113063;-53
2023/11/25 08:47:32;;;;;;;2.80;1.80;;;;;;;1.87;88.02;98452.96;107228;281;155641;-57
2023/11/25 08:50:15;;;;;;;5.80;3.80;;;;;;;1.97;87.84;98456.15;107338;281;97327;-57
2023/11/25 08:52:52;;;;;;;5.50;2.60;;;;;;;2.01;87.67;98453.98;107309;281;154939;-58
2023/11/25 08:55:32;;;;;;;2.50;2.00;;;;;;;2.06;87.68;98452.59;107400;281;104782;-53
2023/11/25 08:58:14;;;;;;;4.10;2.60;;;;;;;2.13;87.40;98450.20;107364;281;114106;-52
2023/11/25 09:00:51;;;;;;;2.70;2.20;;;;;;;2.14;87.41;98448.25;107234;281;153734;-53
2023/11/25 09:03:28;;;;;;;4.30;2.70;;;;;;;2.08;87.10;98456.44;107375;281;97919;-53
2023/11/25 09:06:08;;;;;;;5.30;3.20;;;;;;;1.94;86.98;98467.54;107193;281;154619;-53
2023/11/25 09:08:45;;;;;;;6.20;2.90;;;;;;;1.90;87.04;98469.91;107383;281;104979;-56
2023/11/25 09:11:25;;;;;;;5.00;2.90;;;;;;;1.92;87.09;98473.20;107250;281;155304;-57
2023/11/25 09:14:05;;;;;;;6.20;3.80;;;;;;;1.91;87.10;98478.09;107410;281;95897;-56
2023/11/25 09:16:43;;;;;;;5.50;3.90;;;;;;;1.90;87.13;98480.33;107397;281;98530;-55
2023/11/25 09:19:26;;;;;;;4.60;3.00;;;;;;;1.89;87.14;98481.17;107274;281;123673;-53
2023/11/25 09:22:01;;;;;;;4.70;2.90;;;;;;;1.86;87.23;98489.11;107303;281;104146;-52
2023/11/25 09:24:40;;;;;;;5.00;2.40;;;;;;;1.84;87.25;98490.27;107275;281;155529;-52
2023/11/25 09:27:18;;;;;;;4.20;2.80;;;;;;;1.80;87.26;98495.20;107375;280;93945;-52
2023/11/25 09:29:58;;;;;;;5.50;2.60;;;;;;;1.76;87.38;98499.84;107166;280;154129;-52
2023/11/25 09:32:35;;;;;;;7.20;4.40;;;;;;;1.73;87.38;98499.32;107343;281;120160;-52
2023/11/25 09:35:14;;;;;;;5.10;2.70;;;;;;;1.70;87.49;98497.38;107303;281;154003;-57
2023/11/25 09:37:50;;;;;;;4.10;2.50;;;;;;;1.70;87.60;98498.11;107353;281;114584;-57
2023/11/25 09:40:34;;;;;;;4.00;2.50;;;;;;;1.74;87.60;98497.30;107363;281;94742;-54
2023/11/25 09:43:17;;;;;;;3.00;2.20;;;;;;;1.71;87.58;98501.73;107225;280;153905;-53
2023/11/25 09:45:54;;;;;;;3.70;2.50;;;;;;;1.71;87.52;98503.08;107381;280;119320;-54
2023/11/25 09:48:33;;;;;;;3.60;2.50;;;;;;;1.71;87.59;98503.50;107234;280;154892;-55
2023/11/25 09:51:14;;;;;;;3.40;2.20;;;;;;;1.69;87.75;98501.90;107353;280;113742;-56
2023/11/25 09:54:03;;;;;;;4.80;2.40;;;;;;;1.70;87.70;98505.85;107201;280;154384;-54
2023/11/25 09:56:41;;;;;;;6.80;3.50;;;;;;;1.71;87.73;98508.48;107371;281;98064;-56
2023/11/25 09:59:23;;;;;;;4.00;2.60;;;;;;;1.69;87.79;98508.04;107270;281;154639;-59
2023/11/25 10:02:06;;;;;;;5.10;2.50;;;;;;;1.67;87.82;98512.97;107362;281;105428;-58
2023/11/25 10:04:42;;;;;;;4.50;2.50;;;;;;;1.61;87.89;98517.20;107359;281;112749;-57
2023/11/25 10:07:23;;;;;;;3.90;2.50;;;;;;;1.64;87.97;98516.32;107274;281;97200;-58
2023/11/25 10:09:59;;;;;;;4.40;2.30;;;;;;;1.63;87.95;98514.91;107413;281;97527;-53
2023/11/25 10:12:34;;;;;;;3.60;2.30;;;;;;;1.73;87.91;98519.20;107176;281;155492;-55
2023/11/25 10:15:10;;;;;;;4.20;2.40;;;;;;;1.67;87.84;98521.86;107369;281;104227;-55
2023/11/25 10:17:46;;;;;;;4.30;2.50;;;;;;;1.71;87.83;98518.55;107193;281;154177;-55
2023/11/25 10:20:45;;;;;;;5.50;3.20;;;;;;;1.76;87.78;98517.05;107376;281;91877;-52
2023/11/25 10:23:35;;;;;;;6.50;3.80;;;;;;;1.78;88.04;98520.97;107233;281;154166;-52
2023/11/25 10:26:19;;;;;;;7.70;4.20;;;;;;;1.81;88.12;98522.89;107260;281;120901;-53
2023/11/25 10:29:06;;;;;;;4.20;2.60;;;;;;;1.85;88.15;98523.46;107215;281;156187;-63
2023/11/25 10:31:45;;;;;;;4.40;2.20;;;;;;;1.78;88.13;98523.23;107278;282;114344;-55
2023/11/25 10:34:26;;;;;;;3.60;2.20;;;;;;;1.83;88.16;98527.80;107386;282;94206;-54
2023/11/25 10:37:06;;;;;;;4.20;2.60;;;;;;;1.91;88.02;98534.83;107154;282;154403;-54
2023/11/25 10:39:55;;;;;;;4.60;2.30;;;;;;;1.98;87.81;98537.55;107392;282;120035;-54
2023/11/25 10:42:36;;;;;;;4.40;2.80;;;;;;;2.01;87.67;98540.55;107157;282;153532;-54
2023/11/25 10:45:18;;;;;;;6.10;2.90;;;;;;;1.94;87.74;98551.58;107338;282;115136;-53
2023/11/25 10:47:53;;;;;;;5.70;3.70;;;;;;;1.90;87.56;98556.16;107190;282;153575;-53
2023/11/25 10:50:35;;;;;;;7.80;5.60;;;;;;;1.85;87.56;98557.77;107334;282;98355;-55
2023/11/25 10:53:18;;;;;;;5.60;3.90;;;;;;;1.77;87.58;98562.69;107197;281;154938;-59
2023/11/25 10:55:58;;;;;;;6.10;4.00;;;;;;;1.69;87.57;98559.63;107330;281;106025;-52
2023/11/25 10:58:37;;;;;;;5.00;3.80;;;;;;;1.65;87.62;98560.79;107378;281;112246;-55
2023/11/25 11:01:15;;;;;;;5.60;3.60;;;;;;;1.54;87.66;98566.16;107054;282;155348;-55
2023/11/25 11:04:09;;;;;;;5.80;4.00;;;;;;;1.49;87.79;98560.91;107480;282;97401;-55
2023/11/25 11:06:54;;;;;;;9.10;5.20;;;;;;;1.49;87.78;98567.13;107198;282;154254;-56
2023/11/25 11:09:31;;;;;;;;;;;;;;;1.41;87.95;98565.09;107360;281;106539;-52
2023/11/25 11:12:12;;;;;;;7.10;4.70;;;;;;;1.39;87.89;98569.42;107254;281;139874;-52
2023/11/25 11:15:00;;;;;;;6.80;4.50;;;;;;;1.37;88.04;98567.48;107308;282;95868;-56
2023/11/25 11:17:51;;;;;;;12.80;6.60;;;;;;;1.36;88.12;98567.04;107209;282;154236;-55
2023/11/25 11:20:28;;;;;;;8.90;6.40;;;;;;;1.40;88.17;98570.11;107275;282;119879;-55
2023/11/25 11:23:11;;;;;;;7.70;5.40;;;;;;;1.32;88.30;98572.48;107223;282;154566;-55
2023/11/25 11:26:01;;;;;;;6.50;4.90;;;;;;;1.33;88.22;98575.54;107307;282;114685;-54
2023/11/25 11:28:48;;;;;;;6.70;3.90;;;;;;;1.41;88.37;98573.73;107359;282;94919;-57
2023/11/25 11:32:07;;;;;;;6.40;4.30;;;;;;;1.51;88.24;98579.35;107295;281;96728;-57
2023/11/25 11:34:48;;;;;;;7.20;4.60;;;;;;;1.56;88.29;98585.23;107380;281;119367;-55
2023/11/25 11:37:37;;;;;;;5.80;4.10;;;;;;;1.56;88.28;98585.40;107259;282;106073;-56
2023/11/25 11:40:15;;;;;;;8.60;6.20;;;;;;;1.53;88.33;98588.66;107356;281;114464;-56
2023/11/25 11:43:04;;;;;;;7.50;4.60;;;;;;;1.56;88.37;98592.89;107191;282;155086;-56
2023/11/25 11:45:45;;;;;;;7.80;5.10;;;;;;;1.62;88.42;98591.48;107412;282;97529;-58
2023/11/25 11:48:28;;;;;;;7.50;4.50;;;;;;;1.63;88.28;98591.67;107177;282;152714;-56
2023/11/25 11:51:13;;;;;;;10.30;5.70;;;;;;;1.66;88.39;98594.05;107328;282;106317;-58
2023/11/25 11:54:27;;;;;;;8.30;5.10;;;;;;;1.71;88.38;98595.37;107199;282;155060;-55
2023/11/25 11:57:13;;;;;;;8.20;5.40;;;;;;;1.70;88.21;98599.04;107229;282;95559;-57
2023/11/25 12:52:04;;;;;;;6.80;4.10;;;;;;;1.10;89.05;98607.58;105425;306;678233;-53
2023/11/25 12:54:54;;;;;;;7.10;3.60;;;;;;;1.08;89.04;98607.36;107035;282;153162;-58
2023/11/25 12:57:35;;;;;;;9.00;4.70;;;;;;;1.02;89.02;98605.92;107109;285;97647;-58
2023/11/25 13:00:23;;;;;;;10.10;5.20;;;;;;;1.03;89.11;98605.38;107072;283;153517;-53
2023/11/25 13:03:03;;;;;;;7.50;4.80;;;;;;;1.07;89.27;98607.06;107227;284;103445;-53
2023/11/25 13:05:41;;;;;;;13.20;5.30;;;;;;;1.17;89.22;98610.77;106558;282;748977;-53
2023/11/25 13:08:32;;;;;;;9.30;4.70;;;;;;;1.25;89.10;98615.82;107278;282;92313;-52
2023/11/25 13:11:11;;;;;;;7.50;4.50;;;;;;;1.29;89.07;98618.52;107312;282;95407;-55
2023/11/25 13:13:45;;;;;;;6.10;3.90;;;;;;;1.34;89.13;98615.83;107203;282;152506;-53
2023/11/25 13:16:22;;;;;;;6.30;4.30;;;;;;;1.37;88.81;98619.00;107320;282;103746;-53
2023/11/25 13:19:08;;;;;;;8.00;3.70;;;;;;;1.38;88.64;98625.31;107163;282;153712;-57
2023/11/25 13:21:51;;;;;;;7.30;3.60;;;;;;;1.39;88.68;98626.67;107294;282;95852;-57
2023/11/25 13:24:26;;;;;;;5.50;3.30;;;;;;;1.45;88.51;98627.91;107189;282;154216;-55
2023/11/25 13:27:05;;;;;;;7.80;3.80;;;;;;;1.46;88.32;98630.93;107311;282;118855;-57
2023/11/25 13:29:44;;;;;;;7.80;3.20;;;;;;;1.46;88.20;98631.89;107213;282;153251;-55
2023/11/25 13:32:27;;;;;;;7.30;3.80;;;;;;;1.43;88.13;98631.48;107252;282;114071;-55